createdAt,value
2018-04-12T00:01:07.533Z,25.5
2018-04-12T00:11:07.458Z,26.0
2018-04-12T00:21:07.489Z,25.5
2018-04-12T00:31:07.611Z,23.7
2018-04-12T00:41:07.483Z,22.9
2018-04-12T00:51:07.733Z,23.0
2018-04-12T01:01:07.573Z,22.7
2018-04-12T01:11:07.431Z,25.5
2018-04-12T01:21:07.415Z,26.8
2018-04-12T01:31:07.278Z,27.0
2018-04-12T01:41:07.083Z,25.9
2018-04-12T01:51:06.930Z,25.4
2018-04-12T02:01:06.760Z,25.2
2018-04-12T02:11:07.601Z,23.4
2018-04-12T02:21:07.608Z,23.6
2018-04-12T02:31:07.454Z,23.8
2018-04-12T02:41:07.300Z,22.0
2018-04-12T02:51:07.156Z,20.7
2018-04-12T03:01:07.135Z,21.8
2018-04-12T03:11:07.002Z,23.0
2018-04-12T03:21:06.891Z,22.4
2018-04-12T03:31:06.734Z,22.4
2018-04-12T03:41:07.497Z,22.9
2018-04-12T03:51:07.325Z,22.4
2018-04-12T04:01:07.116Z,22.9
2018-04-12T04:11:07.622Z,24.4
2018-04-12T04:21:07.544Z,24.8
2018-04-12T04:31:07.150Z,23.8
2018-04-12T04:41:06.461Z,22.7
2018-04-12T04:51:07.430Z,23.2
2018-04-12T05:01:07.245Z,22.1
2018-04-12T05:11:07.061Z,21.6
2018-04-12T05:21:07.012Z,22.3
2018-04-12T05:31:06.770Z,26.5
2018-04-12T05:41:07.682Z,25.9
2018-04-12T05:51:07.502Z,35.2
2018-04-12T06:01:07.294Z,26.2
2018-04-12T06:11:07.102Z,29.7
2018-04-12T06:21:07.039Z,32.4
2018-04-12T06:31:06.838Z,34.9
2018-04-12T06:41:07.688Z,38.6
2018-04-12T06:51:07.577Z,39.2
2018-04-12T07:01:07.437Z,33.8
2018-04-12T07:11:07.295Z,39.4
2018-04-12T07:21:07.256Z,37.6
2018-04-12T07:31:07.080Z,28.5
2018-04-12T07:41:06.932Z,25.3
2018-04-12T07:51:06.842Z,28.5
2018-04-12T08:01:07.853Z,23.8
2018-04-12T08:11:07.722Z,21.5
2018-04-12T08:21:07.725Z,17.1
2018-04-12T08:31:07.548Z,17.8
2018-04-12T08:41:07.362Z,15.7
2018-04-12T08:51:07.178Z,12.9
2018-04-12T09:01:06.967Z,13.6
2018-04-12T09:11:06.843Z,12.5
2018-04-12T09:21:06.837Z,12.1
2018-04-12T09:31:07.700Z,11.0
2018-04-12T09:41:07.574Z,9.8
2018-04-12T09:51:07.447Z,10.5
2018-04-12T10:01:07.313Z,11.1
2018-04-12T10:11:07.269Z,10.4
2018-04-12T10:21:07.250Z,9.8
2018-04-12T10:31:07.174Z,9.6
2018-04-12T10:41:07.084Z,9.0
2018-04-12T10:51:06.908Z,8.8
2018-04-12T11:01:07.836Z,9.4
2018-04-12T11:11:07.748Z,9.0
2018-04-12T11:21:07.960Z,7.4
2018-04-12T11:31:05.992Z,7.6
2018-04-12T11:41:06.810Z,7.7
2018-04-12T11:51:07.640Z,7.2
2018-04-12T12:01:07.541Z,7.6
2018-04-12T12:11:07.410Z,7.7
2018-04-12T12:21:07.436Z,7.4
2018-04-12T12:31:07.354Z,7.1
2018-04-12T12:41:07.319Z,7.7
2018-04-12T12:51:07.258Z,7.8
2018-04-12T13:01:06.118Z,7.8
2018-04-12T13:11:07.069Z,9.1
2018-04-12T13:21:07.167Z,7.7
2018-04-12T13:31:07.094Z,8.7
2018-04-12T13:41:07.004Z,8.5
2018-04-12T13:51:06.972Z,8.3
2018-04-12T14:01:06.841Z,9.0
2018-04-12T14:11:07.687Z,8.1
2018-04-12T14:21:07.755Z,8.6
2018-04-12T14:31:06.624Z,8.1
2018-04-12T14:41:07.496Z,9.3
2018-04-12T14:51:06.404Z,7.8
2018-04-12T15:01:07.307Z,7.6
2018-04-12T15:11:07.243Z,8.1
2018-04-12T15:21:06.186Z,7.0
2018-04-12T15:31:05.951Z,7.6
2018-04-12T15:41:06.798Z,7.3
2018-04-12T15:51:06.720Z,8.0
2018-04-12T16:01:07.632Z,7.9
2018-04-12T16:11:07.525Z,8.5
2018-04-12T16:21:06.587Z,8.1
2018-04-12T16:31:07.528Z,9.3
2018-04-12T16:41:07.415Z,10.3
2018-04-12T16:51:07.461Z,9.0
2018-04-12T17:01:07.407Z,9.7
2018-04-12T17:11:07.334Z,11.2
2018-04-12T17:21:07.348Z,11.3
2018-04-12T17:31:07.229Z,11.4
2018-04-12T17:41:07.135Z,14.4
2018-04-12T17:51:07.083Z,14.6
2018-04-12T18:01:08.012Z,15.6
2018-04-12T18:11:07.977Z,15.7
2018-04-12T18:21:07.040Z,16.5
2018-04-12T18:31:07.974Z,19.6
2018-04-12T18:41:07.927Z,19.0
2018-04-12T18:51:07.767Z,18.3
2018-04-12T19:01:07.654Z,18.6
2018-04-12T19:11:07.591Z,19.7
2018-04-12T19:21:07.600Z,19.5
2018-04-12T19:31:07.499Z,20.8
2018-04-12T19:41:07.449Z,21.3
2018-04-12T19:51:07.347Z,21.6
2018-04-12T20:01:07.311Z,22.0
2018-04-12T20:11:07.262Z,21.1
2018-04-12T20:21:07.398Z,22.4
2018-04-12T20:31:07.326Z,22.5
2018-04-12T20:41:07.349Z,24.8
2018-04-12T20:51:07.340Z,21.9
2018-04-12T21:01:07.268Z,22.3
2018-04-12T21:11:07.141Z,21.0
2018-04-12T21:21:07.271Z,20.6
2018-04-12T21:31:07.180Z,25.6
2018-04-12T21:41:07.097Z,21.9
2018-04-12T21:51:07.975Z,22.0
2018-04-12T22:01:07.829Z,21.9
2018-04-12T22:11:07.674Z,23.4
2018-04-12T22:21:07.639Z,23.7
2018-04-12T22:31:07.494Z,22.0
2018-04-12T22:41:07.368Z,24.8
2018-04-12T22:51:07.246Z,25.6
2018-04-12T23:01:07.096Z,25.5
2018-04-12T23:11:07.985Z,26.8
2018-04-12T23:21:07.960Z,28.8
2018-04-12T23:31:07.825Z,29.0
2018-04-12T23:41:07.620Z,30.5
2018-04-12T23:51:07.476Z,31.8
